createdAt,value
2017-11-08T00:00:33.021Z,43.95
2017-11-08T00:02:59.466Z,46.88
2017-11-08T00:05:25.959Z,48.60
2017-11-08T00:07:52.483Z,48.63
2017-11-08T00:10:19.687Z,50.30
2017-11-08T00:12:46.249Z,51.58
2017-11-08T00:15:12.734Z,49.40
2017-11-08T00:17:39.964Z,53.42
2017-11-08T00:20:07.526Z,50.33
2017-11-08T00:22:34.074Z,51.92
2017-11-08T00:25:00.569Z,54.47
2017-11-08T00:27:26.995Z,46.83
2017-11-08T00:29:53.497Z,52.70
2017-11-08T00:32:20.815Z,53.83
2017-11-08T00:34:47.343Z,50.42
2017-11-08T00:37:13.793Z,50.25
2017-11-08T00:39:40.275Z,49.83
2017-11-08T00:42:07.492Z,52.03
2017-11-08T00:44:33.927Z,46.67
2017-11-08T00:47:00.517Z,52.10
2017-11-08T00:49:27.715Z,57.53
2017-11-08T00:51:54.172Z,56.78
2017-11-08T00:54:20.639Z,59.20
2017-11-08T00:56:47.815Z,55.85
2017-11-08T00:59:15.047Z,54.42
2017-11-08T01:01:41.487Z,53.22
2017-11-08T01:04:07.939Z,53.35
2017-11-08T01:06:34.427Z,59.53
2017-11-08T01:09:00.864Z,52.25
2017-11-08T01:11:27.317Z,55.47
2017-11-08T01:13:53.767Z,54.38
2017-11-08T01:16:20.240Z,55.60
2017-11-08T01:18:47.444Z,54.58
2017-11-08T01:21:13.879Z,52.88
2017-11-08T01:23:40.337Z,55.05
2017-11-08T01:26:06.803Z,53.08
2017-11-08T01:28:34.960Z,52.17
2017-11-08T01:31:01.398Z,55.38
2017-11-08T01:33:28.594Z,53.35
2017-11-08T01:35:55.045Z,58.70
2017-11-08T01:38:21.487Z,56.40
2017-11-08T01:40:47.954Z,57.83
2017-11-08T01:43:16.044Z,57.03
2017-11-08T01:45:42.538Z,62.55
2017-11-08T01:48:09.016Z,61.78
2017-11-08T01:50:38.433Z,57.67
2017-11-08T01:53:04.935Z,60.80
2017-11-08T01:55:31.422Z,57.78
2017-11-08T01:57:57.893Z,56.83
2017-11-08T02:00:24.318Z,54.17
2017-11-08T02:02:51.580Z,53.50
2017-11-08T02:05:18.767Z,56.28
2017-11-08T02:07:45.230Z,59.03
2017-11-08T02:10:11.729Z,56.70
2017-11-08T02:12:38.154Z,56.50
2017-11-08T02:15:05.365Z,58.60
2017-11-08T02:17:31.799Z,58.95
2017-11-08T02:19:58.396Z,59.55
2017-11-08T02:22:24.852Z,53.40
2017-11-08T02:24:55.543Z,56.83
2017-11-08T02:27:27.948Z,53.97
2017-11-08T02:29:54.368Z,53.45
2017-11-08T02:32:21.575Z,57.20
2017-11-08T02:34:48.067Z,53.95
2017-11-08T02:37:15.267Z,55.22
2017-11-08T02:39:41.695Z,60.63
2017-11-08T02:42:08.121Z,56.53
2017-11-08T02:44:34.564Z,54.58
2017-11-08T02:47:01.005Z,64.85
2017-11-08T02:49:27.493Z,62.15
2017-11-08T02:51:54.932Z,64.75
2017-11-08T02:54:23.346Z,55.63
2017-11-08T02:56:49.855Z,61.92
2017-11-08T02:59:16.349Z,63.97
2017-11-08T03:01:43.562Z,64.55
2017-11-08T03:04:10.112Z,60.22
2017-11-08T03:06:36.595Z,60.70
2017-11-08T03:09:03.056Z,59.08
2017-11-08T03:11:29.512Z,64.05
2017-11-08T03:13:55.956Z,62.92
2017-11-08T03:16:22.458Z,56.53
2017-11-08T03:18:49.012Z,53.90
2017-11-08T03:21:15.448Z,58.97
2017-11-08T03:23:41.935Z,58.95
2017-11-08T03:26:08.400Z,54.83
2017-11-08T03:28:34.921Z,57.90
2017-11-08T03:31:01.373Z,59.92
2017-11-08T03:33:27.823Z,59.90
2017-11-08T03:35:54.294Z,58.28
2017-11-08T03:38:20.747Z,55.20
2017-11-08T03:40:47.216Z,55.88
2017-11-08T03:43:13.649Z,50.95
2017-11-08T03:45:40.105Z,54.58
2017-11-08T03:48:07.348Z,52.35
2017-11-08T03:50:33.768Z,57.00
2017-11-08T03:53:00.252Z,53.65
2017-11-08T03:55:26.718Z,54.50
2017-11-08T03:57:53.219Z,54.90
2017-11-08T04:00:20.431Z,53.03
2017-11-08T04:02:46.889Z,65.30
2017-11-08T04:05:14.347Z,65.87
2017-11-08T04:07:40.801Z,65.77
2017-11-08T04:10:07.268Z,62.78
2017-11-08T04:12:33.764Z,65.60
2017-11-08T04:15:00.236Z,69.70
2017-11-08T04:17:27.439Z,60.42
2017-11-08T04:19:53.877Z,65.57
2017-11-08T04:22:20.565Z,77.70
2017-11-08T04:24:47.743Z,71.62
2017-11-08T04:27:14.953Z,78.37
2017-11-08T04:29:41.399Z,70.03
2017-11-08T04:32:08.605Z,75.10
2017-11-08T04:34:35.074Z,81.00
2017-11-08T04:37:01.539Z,73.07
2017-11-08T04:39:27.991Z,73.15
2017-11-08T04:41:55.147Z,79.07
2017-11-08T04:44:22.393Z,74.20
2017-11-08T04:46:48.839Z,74.78
2017-11-08T04:49:15.277Z,76.65
2017-11-08T04:51:42.564Z,79.30
2017-11-08T04:54:09.072Z,81.93
2017-11-08T04:56:35.531Z,82.20
2017-11-08T04:59:02.687Z,81.97
2017-11-08T05:01:29.188Z,81.80
2017-11-08T05:03:57.148Z,81.68
2017-11-08T05:06:23.643Z,78.60
2017-11-08T05:08:50.135Z,79.22
2017-11-08T05:11:16.575Z,82.28
2017-11-08T05:13:43.035Z,83.50
2017-11-08T05:16:09.466Z,81.37
2017-11-08T05:18:35.934Z,87.85
2017-11-08T05:21:03.135Z,90.18
2017-11-08T05:23:29.587Z,88.30
2017-11-08T05:25:56.100Z,87.72
2017-11-08T05:28:22.524Z,81.80
2017-11-08T05:30:48.998Z,83.82
2017-11-08T05:33:15.423Z,83.57
2017-11-08T05:35:41.954Z,88.65
2017-11-08T05:38:08.398Z,87.95
2017-11-08T05:40:34.960Z,81.65
2017-11-08T05:43:01.414Z,91.97
2017-11-08T05:45:27.859Z,82.93
2017-11-08T05:47:54.328Z,78.85
2017-11-08T05:50:20.800Z,86.82
2017-11-08T05:52:47.433Z,82.40
2017-11-08T05:55:13.856Z,79.97
2017-11-08T05:57:40.383Z,85.78
2017-11-08T06:00:07.556Z,85.30
2017-11-08T06:02:34.034Z,86.82
2017-11-08T06:05:00.500Z,89.35
2017-11-08T06:07:27.712Z,82.00
2017-11-08T06:09:54.217Z,81.50
2017-11-08T06:12:20.676Z,82.65
2017-11-08T06:14:47.150Z,84.70
2017-11-08T06:17:13.624Z,76.45
2017-11-08T06:19:40.830Z,86.22
2017-11-08T06:22:07.345Z,73.05
2017-11-08T06:24:33.747Z,79.03
2017-11-08T06:27:00.941Z,88.45
2017-11-08T06:29:27.441Z,79.15
2017-11-08T06:31:54.771Z,83.35
2017-11-08T06:34:21.265Z,87.75
2017-11-08T06:36:47.709Z,77.50
2017-11-08T06:39:14.203Z,80.20
2017-11-08T06:41:41.380Z,79.22
2017-11-08T06:44:08.732Z,76.53
2017-11-08T06:46:35.144Z,77.30
2017-11-08T06:49:01.604Z,81.40
2017-11-08T06:51:28.087Z,74.20
2017-11-08T06:53:54.527Z,75.85
2017-11-08T06:56:20.996Z,75.15
2017-11-08T06:58:47.429Z,72.68
2017-11-08T07:01:13.886Z,72.68
2017-11-08T07:03:40.371Z,71.43
2017-11-08T07:06:06.831Z,74.20
2017-11-08T07:08:33.359Z,68.62
2017-11-08T07:10:59.799Z,70.50
2017-11-08T07:13:26.296Z,72.57
2017-11-08T07:15:53.504Z,70.00
2017-11-08T07:18:19.946Z,71.70
2017-11-08T07:20:46.408Z,70.55
2017-11-08T07:23:12.899Z,69.25
2017-11-08T07:25:39.353Z,63.50
2017-11-08T07:28:05.812Z,65.22
2017-11-08T07:30:32.392Z,67.37
2017-11-08T07:32:59.599Z,70.20
2017-11-08T07:35:26.030Z,72.62
2017-11-08T07:37:52.570Z,75.97
2017-11-08T07:40:19.019Z,68.90
2017-11-08T07:42:45.480Z,67.35
2017-11-08T07:45:11.923Z,63.90
2017-11-08T07:47:38.416Z,66.87
2017-11-08T07:50:04.857Z,66.70
2017-11-08T07:52:31.321Z,67.22
2017-11-08T07:55:00.771Z,72.93
2017-11-08T07:57:27.965Z,68.87
2017-11-08T07:59:54.444Z,69.47
2017-11-08T08:02:20.950Z,68.47
2017-11-08T08:04:47.372Z,68.82
2017-11-08T08:07:13.901Z,54.53
2017-11-08T08:09:42.920Z,55.63
2017-11-08T08:12:12.244Z,53.10
2017-11-08T08:14:38.875Z,54.53
2017-11-08T08:17:05.369Z,54.60
2017-11-08T08:19:35.512Z,50.73
2017-11-08T08:22:01.954Z,55.20
2017-11-08T08:24:28.974Z,54.73
2017-11-08T08:26:55.440Z,59.33
2017-11-08T08:29:21.912Z,55.45
2017-11-08T08:31:48.379Z,59.72
2017-11-08T08:34:14.806Z,47.45
2017-11-08T08:36:41.232Z,47.90
2017-11-08T08:39:07.704Z,45.53
2017-11-08T08:41:34.197Z,45.63
2017-11-08T08:44:00.723Z,46.30
2017-11-08T08:46:27.923Z,36.37
2017-11-08T08:48:54.456Z,38.83
2017-11-08T08:51:20.879Z,39.87
2017-11-08T08:53:47.342Z,38.55
2017-11-08T08:56:13.801Z,26.70
2017-11-08T08:58:40.247Z,28.40
2017-11-08T09:01:06.782Z,29.93
2017-11-08T09:03:34.214Z,34.10
2017-11-08T09:06:00.720Z,33.53
2017-11-08T09:08:27.173Z,32.10
2017-11-08T09:10:53.592Z,29.37
2017-11-08T09:13:20.065Z,27.30
2017-11-08T09:15:46.644Z,27.75
2017-11-08T09:18:13.844Z,27.63
2017-11-08T09:20:40.287Z,30.73
2017-11-08T09:23:06.772Z,30.90
2017-11-08T09:25:33.249Z,32.90
2017-11-08T09:27:59.704Z,25.00
2017-11-08T09:30:29.234Z,28.62
2017-11-08T09:32:55.800Z,30.60
2017-11-08T09:35:23.798Z,24.90
2017-11-08T09:38:03.182Z,20.80
2017-11-08T09:40:30.484Z,18.65
2017-11-08T09:42:57.705Z,15.13
2017-11-08T09:45:24.163Z,16.60
2017-11-08T09:47:50.819Z,10.85
2017-11-08T09:50:18.050Z,12.25
2017-11-08T09:52:44.516Z,14.48
2017-11-08T09:55:11.692Z,17.20
2017-11-08T09:57:38.730Z,14.85
2017-11-08T10:00:05.901Z,14.82
2017-11-08T10:02:34.328Z,15.63
2017-11-08T10:05:00.809Z,12.57
2017-11-08T10:07:27.996Z,13.17
2017-11-08T10:09:54.595Z,12.37
2017-11-08T10:12:20.915Z,13.17
2017-11-08T10:14:47.368Z,14.33
2017-11-08T10:17:14.543Z,7.90
2017-11-08T10:19:40.991Z,14.93
2017-11-08T10:22:09.494Z,14.30
2017-11-08T10:24:35.904Z,13.40
2017-11-08T10:27:03.137Z,11.15
2017-11-08T10:29:30.331Z,14.20
2017-11-08T10:31:56.805Z,12.70
2017-11-08T10:34:23.467Z,15.52
2017-11-08T10:36:49.900Z,13.77
2017-11-08T10:39:16.383Z,12.90
2017-11-08T10:41:43.017Z,16.48
2017-11-08T10:44:09.530Z,8.27
2017-11-08T10:46:35.993Z,12.40
2017-11-08T10:49:05.288Z,11.45
2017-11-08T10:51:31.708Z,11.80
2017-11-08T10:53:58.197Z,11.50
2017-11-08T10:56:24.761Z,11.05
2017-11-08T10:58:51.205Z,11.95
2017-11-08T11:01:20.500Z,10.35
2017-11-08T11:03:50.805Z,16.10
2017-11-08T11:06:17.328Z,14.82
2017-11-08T11:08:43.791Z,9.88
2017-11-08T11:11:10.228Z,12.88
2017-11-08T11:13:42.757Z,12.73
2017-11-08T11:16:09.228Z,11.50
2017-11-08T11:18:35.720Z,11.85
2017-11-08T11:21:02.888Z,8.50
2017-11-08T11:23:36.123Z,10.20
2017-11-08T11:26:02.620Z,6.43
2017-11-08T11:28:29.812Z,10.02
2017-11-08T11:30:56.463Z,8.07
2017-11-08T11:33:22.954Z,10.43
2017-11-08T11:35:50.128Z,10.05
2017-11-08T11:38:18.636Z,9.80
2017-11-08T11:40:45.072Z,10.25
2017-11-08T11:43:11.555Z,9.38
2017-11-08T11:45:38.004Z,7.47
2017-11-08T11:48:04.497Z,7.32
2017-11-08T11:50:31.119Z,10.43
2017-11-08T11:52:57.581Z,11.10
2017-11-08T11:55:24.052Z,10.38
2017-11-08T11:57:50.505Z,9.88
2017-11-08T12:00:16.999Z,10.02
2017-11-08T12:02:43.464Z,9.30
2017-11-08T12:05:09.936Z,7.50
2017-11-08T12:07:38.137Z,8.98
2017-11-08T12:10:04.782Z,12.02
2017-11-08T12:12:31.229Z,12.35
2017-11-08T12:14:57.705Z,12.40
2017-11-08T12:17:24.206Z,14.20
2017-11-08T12:19:50.824Z,15.95
2017-11-08T12:22:18.062Z,16.65
2017-11-08T12:24:45.392Z,12.48
2017-11-08T12:27:13.759Z,16.48
2017-11-08T12:29:40.253Z,15.23
2017-11-08T12:32:06.820Z,16.25
2017-11-08T12:34:33.385Z,17.27
2017-11-08T12:36:59.889Z,14.23
2017-11-08T12:39:27.106Z,13.07
2017-11-08T12:41:53.549Z,18.35
2017-11-08T12:44:25.029Z,16.33
2017-11-08T12:46:52.386Z,19.08
2017-11-08T12:49:18.911Z,16.05
2017-11-08T12:51:45.372Z,25.98
2017-11-08T12:54:12.630Z,20.00
2017-11-08T12:56:39.855Z,17.75
2017-11-08T12:59:06.285Z,18.12
2017-11-08T13:01:32.761Z,18.75
2017-11-08T13:03:59.972Z,17.62
2017-11-08T13:06:26.515Z,19.90
2017-11-08T13:08:52.981Z,17.83
2017-11-08T13:11:25.702Z,17.77
2017-11-08T13:13:52.367Z,17.15
2017-11-08T13:16:18.869Z,19.90
2017-11-08T13:18:46.090Z,17.08
2017-11-08T13:21:12.622Z,20.30
2017-11-08T13:23:39.113Z,20.45
2017-11-08T13:26:06.447Z,19.52
2017-11-08T13:28:33.001Z,21.02
2017-11-08T13:31:00.303Z,17.95
2017-11-08T13:33:26.921Z,24.37
2017-11-08T13:35:53.536Z,25.42
2017-11-08T13:38:20.018Z,24.20
2017-11-08T13:40:46.553Z,23.85
2017-11-08T13:43:13.036Z,33.63
2017-11-08T13:45:39.665Z,24.10
2017-11-08T13:48:06.300Z,26.35
2017-11-08T13:50:32.773Z,22.20
2017-11-08T13:52:59.253Z,20.40
2017-11-08T13:55:26.695Z,20.35
2017-11-08T13:57:53.153Z,19.33
2017-11-08T14:00:20.369Z,20.52
2017-11-08T14:02:46.881Z,21.17
2017-11-08T14:05:13.343Z,23.30
2017-11-08T14:07:39.832Z,23.48
2017-11-08T14:10:07.174Z,20.95
2017-11-08T14:12:49.411Z,19.62
2017-11-08T14:15:15.900Z,18.58
2017-11-08T14:17:42.380Z,19.10
2017-11-08T14:20:09.275Z,17.67
2017-11-08T14:22:35.762Z,20.95
2017-11-08T14:25:02.350Z,20.92
2017-11-08T14:27:28.861Z,24.37
2017-11-08T14:29:55.309Z,21.87
2017-11-08T14:32:24.772Z,20.40
2017-11-08T14:34:53.066Z,28.50
2017-11-08T14:37:20.253Z,34.53
2017-11-08T14:39:46.851Z,37.20
2017-11-08T14:42:20.423Z,31.35
2017-11-08T14:44:47.048Z,27.13
2017-11-08T14:47:13.615Z,35.92
2017-11-08T14:49:40.108Z,27.37
2017-11-08T14:52:06.735Z,24.92
2017-11-08T14:54:34.044Z,28.90
2017-11-08T14:57:00.517Z,21.25
2017-11-08T14:59:27.078Z,21.90
2017-11-08T15:01:53.683Z,18.35
2017-11-08T15:04:20.198Z,16.50
2017-11-08T15:06:46.752Z,19.80
2017-11-08T15:09:15.172Z,14.85
2017-11-08T15:11:44.679Z,16.45
2017-11-08T15:14:16.168Z,13.15
2017-11-08T15:16:42.900Z,16.10
2017-11-08T15:19:09.635Z,20.00
2017-11-08T15:21:43.124Z,14.35
2017-11-08T15:24:10.600Z,13.80
2017-11-08T15:26:37.780Z,15.57
2017-11-08T15:29:04.305Z,19.10
2017-11-08T15:31:30.820Z,16.37
2017-11-08T15:33:58.049Z,16.50
2017-11-08T15:36:24.521Z,17.55
2017-11-08T15:38:51.815Z,16.35
2017-11-08T15:41:19.309Z,21.58
2017-11-08T15:43:45.804Z,20.20
2017-11-08T15:46:13.201Z,16.60
2017-11-08T15:48:39.694Z,16.48
2017-11-08T15:51:06.969Z,19.00
2017-11-08T15:53:33.494Z,19.37
2017-11-08T15:56:00.715Z,17.37
2017-11-08T15:58:27.317Z,17.90
2017-11-08T16:00:53.922Z,19.33
2017-11-08T16:03:21.183Z,20.83
2017-11-08T16:05:48.483Z,22.52
2017-11-08T16:08:30.932Z,20.75
2017-11-08T16:11:01.663Z,28.02
2017-11-08T16:13:35.268Z,37.95
2017-11-08T16:16:01.848Z,34.40
2017-11-08T16:18:28.520Z,32.03
2017-11-08T16:20:55.054Z,32.13
2017-11-08T16:23:21.639Z,26.95
2017-11-08T16:25:48.121Z,24.40
2017-11-08T16:28:14.580Z,27.00
2017-11-08T16:30:41.097Z,25.33
2017-11-08T16:33:07.553Z,26.80
2017-11-08T16:35:34.118Z,24.05
2017-11-08T16:38:00.621Z,30.92
2017-11-08T16:40:27.153Z,24.48
2017-11-08T16:42:53.709Z,29.10
2017-11-08T16:45:20.286Z,26.58
2017-11-08T16:47:47.641Z,24.58
2017-11-08T16:50:14.155Z,26.23
2017-11-08T16:52:45.319Z,25.25
2017-11-08T16:55:11.763Z,27.50
2017-11-08T16:57:38.337Z,26.65
2017-11-08T17:00:05.554Z,33.45
2017-11-08T17:02:32.147Z,21.40
2017-11-08T17:04:59.448Z,33.88
2017-11-08T17:07:25.980Z,27.92
2017-11-08T17:09:52.662Z,31.15
2017-11-08T17:12:19.365Z,36.80
2017-11-08T17:14:45.918Z,37.85
2017-11-08T17:17:12.647Z,28.35
2017-11-08T17:19:39.135Z,30.12
2017-11-08T17:22:07.364Z,29.80
2017-11-08T17:24:34.023Z,33.70
2017-11-08T17:27:00.635Z,39.22
2017-11-08T17:29:27.148Z,29.02
2017-11-08T17:31:54.515Z,28.45
2017-11-08T17:34:21.990Z,28.45
2017-11-08T17:36:48.688Z,25.08
2017-11-08T17:39:15.370Z,29.40
2017-11-08T17:41:42.884Z,29.80
2017-11-08T17:44:09.388Z,29.15
2017-11-08T17:46:37.398Z,27.27
2017-11-08T17:49:08.810Z,32.40
2017-11-08T17:51:37.261Z,38.17
2017-11-08T17:54:03.737Z,30.80
2017-11-08T17:56:30.213Z,36.17
2017-11-08T17:58:56.729Z,29.55
2017-11-08T18:01:23.535Z,26.77
2017-11-08T18:03:50.117Z,26.58
2017-11-08T18:06:16.665Z,33.22
2017-11-08T18:08:43.260Z,24.95
2017-11-08T18:11:09.874Z,34.75
2017-11-08T18:13:36.444Z,28.80
2017-11-08T18:16:03.090Z,27.00
2017-11-08T18:18:30.352Z,25.10
2017-11-08T18:20:57.617Z,27.55
2017-11-08T18:23:25.016Z,28.95
2017-11-08T18:25:51.596Z,28.48
2017-11-08T18:28:19.021Z,28.58
2017-11-08T18:30:45.663Z,31.85
2017-11-08T18:33:12.284Z,38.60
2017-11-08T18:35:38.771Z,30.08
2017-11-08T18:38:05.290Z,31.00
2017-11-08T18:40:31.809Z,41.63
2017-11-08T18:42:58.345Z,59.40
2017-11-08T18:45:24.828Z,40.88
2017-11-08T18:47:51.387Z,36.05
2017-11-08T18:50:17.856Z,36.45
2017-11-08T18:52:45.107Z,41.72
2017-11-08T18:55:12.340Z,37.00
2017-11-08T18:57:38.937Z,32.10
2017-11-08T19:00:05.544Z,30.40
2017-11-08T19:02:32.868Z,38.13
2017-11-08T19:04:59.347Z,36.65
2017-11-08T19:07:26.629Z,33.00
2017-11-08T19:09:53.384Z,34.78
2017-11-08T19:12:19.838Z,24.70
2017-11-08T19:14:46.372Z,30.35
2017-11-08T19:17:12.872Z,30.42
2017-11-08T19:19:40.095Z,34.75
2017-11-08T19:22:07.520Z,31.35
2017-11-08T19:24:34.100Z,32.00
2017-11-08T19:27:00.664Z,31.87
2017-11-08T19:29:27.874Z,32.03
2017-11-08T19:34:51.809Z,30.98
2017-11-08T19:37:19.206Z,27.58
2017-11-08T19:39:45.853Z,27.77
2017-11-08T19:42:12.415Z,29.35
2017-11-08T19:44:38.935Z,29.83
2017-11-08T19:47:05.490Z,28.95
2017-11-08T19:49:32.194Z,24.85
2017-11-08T19:51:58.710Z,24.08
2017-11-08T20:04:15.293Z,24.87
2017-11-08T20:06:41.844Z,22.55
2017-11-08T20:09:08.361Z,22.83
2017-11-08T20:11:34.898Z,23.48
2017-11-08T20:14:01.585Z,20.60
2017-11-08T20:16:28.153Z,19.20
2017-11-08T20:18:54.977Z,19.70
2017-11-08T20:21:21.495Z,18.58
2017-11-08T20:23:48.257Z,24.73
2017-11-08T20:26:15.464Z,19.70
2017-11-08T20:28:42.114Z,20.55
2017-11-08T20:31:08.626Z,19.15
2017-11-08T20:33:35.154Z,22.98
2017-11-08T20:36:01.738Z,22.70
2017-11-08T20:38:28.215Z,22.30
2017-11-08T20:50:44.874Z,22.42
2017-11-08T20:53:11.522Z,22.70
2017-11-08T20:55:38.829Z,23.52
2017-11-08T20:58:05.345Z,24.77
2017-11-08T21:00:32.597Z,24.50
2017-11-08T21:02:59.098Z,27.15
2017-11-08T21:05:26.234Z,22.87
2017-11-08T21:07:52.819Z,25.80
2017-11-08T21:10:19.423Z,24.42
2017-11-08T21:13:00.744Z,29.30
2017-11-08T21:15:27.263Z,20.25
2017-11-08T21:20:49.893Z,18.85
2017-11-08T21:23:16.513Z,25.92
2017-11-08T21:25:43.785Z,26.00
2017-11-08T21:28:10.301Z,23.65
2017-11-08T21:30:37.580Z,27.20
2017-11-08T21:33:04.919Z,23.42
2017-11-08T21:35:32.156Z,26.98
2017-11-08T21:37:58.660Z,22.70
2017-11-08T21:40:25.167Z,24.23
2017-11-08T21:42:52.392Z,14.73
2017-11-08T21:45:19.905Z,21.77
2017-11-08T21:47:46.481Z,23.02
2017-11-08T21:50:13.089Z,25.35
2017-11-08T21:52:39.585Z,20.48
2017-11-08T21:55:06.071Z,20.27
2017-11-08T21:57:32.560Z,16.48
2017-11-08T21:59:59.150Z,19.58
2017-11-08T22:02:25.732Z,18.33
2017-11-08T22:04:52.252Z,19.65
2017-11-08T22:07:18.789Z,17.35
2017-11-08T22:09:45.320Z,17.35
2017-11-08T22:12:11.762Z,19.95
2017-11-08T22:14:38.478Z,16.60
2017-11-08T22:17:05.685Z,19.15
2017-11-08T22:19:32.529Z,19.95
2017-11-08T22:21:58.968Z,22.35
2017-11-08T22:24:26.511Z,19.70
2017-11-08T22:26:53.037Z,21.15
2017-11-08T22:29:19.662Z,24.73
2017-11-08T22:31:47.059Z,28.42
2017-11-08T22:34:13.551Z,26.05
2017-11-08T22:36:40.866Z,22.50
2017-11-08T22:39:08.867Z,30.45
2017-11-08T22:41:35.340Z,26.75
2017-11-08T22:44:02.739Z,30.17
2017-11-08T22:46:29.238Z,23.70
2017-11-08T22:48:56.557Z,27.17
2017-11-08T22:51:23.144Z,27.08
2017-11-08T22:53:50.399Z,26.75
2017-11-08T22:56:17.655Z,25.85
2017-11-08T22:58:45.045Z,24.63
2017-11-08T23:01:11.522Z,19.37
2017-11-08T23:03:38.035Z,24.73
2017-11-08T23:06:04.827Z,19.52
2017-11-08T23:08:32.113Z,23.85
2017-11-08T23:10:58.628Z,20.30
2017-11-08T23:13:25.867Z,22.90
2017-11-08T23:15:52.371Z,21.48
2017-11-08T23:18:18.832Z,26.23
2017-11-08T23:20:45.433Z,20.58
2017-11-08T23:23:11.861Z,23.45
2017-11-08T23:25:38.541Z,21.37
2017-11-08T23:28:05.061Z,20.27
2017-11-08T23:30:31.676Z,20.50
2017-11-08T23:33:05.989Z,23.55
2017-11-08T23:35:33.189Z,21.02
2017-11-08T23:38:00.004Z,21.85
2017-11-08T23:40:26.538Z,20.02
2017-11-08T23:42:53.757Z,17.27
2017-11-08T23:45:20.260Z,19.15
2017-11-08T23:47:47.001Z,19.62
2017-11-08T23:50:13.512Z,21.27
2017-11-08T23:52:40.914Z,20.73
2017-11-08T23:55:07.345Z,14.27
2017-11-08T23:57:33.835Z,18.77
